Time;durP1;ratioP1;P1;durP2;ratioP2;P2;SDS_P1;SDS_P2;PMS_P1;PMS_P2;Temp;Humidity;BMP_temperature;BMP_pressure;BME280_temperature;BME280_humidity;BME280_pressure;Samples;Min_cycle;Max_cycle;Signal;HPM_P1;HPM_P2
2024/02/06 00:01:52;;;;;;;14.02;6.30;;;9.60;66.90;;;;;;5032443;28;20536;-77
2024/02/06 00:04:17;;;;;;;12.75;6.40;;;9.70;66.90;;;;;;5034261;28;20415;-76
2024/02/06 00:06:43;;;;;;;14.20;6.35;;;9.70;66.80;;;;;;5032366;28;20383;-76
2024/02/06 00:09:09;;;;;;;18.77;6.20;;;9.70;66.70;;;;;;5032202;28;20889;-77
2024/02/06 00:11:35;;;;;;;10.15;6.00;;;9.70;65.90;;;;;;5031656;28;20386;-76
2024/02/06 00:14:00;;;;;;;16.05;6.13;;;9.80;64.40;;;;;;5031640;28;20874;-75
2024/02/06 00:16:26;;;;;;;14.13;5.90;;;9.80;64.20;;;;;;5031905;28;20403;-77
2024/02/06 00:18:51;;;;;;;10.30;5.73;;;9.80;64.10;;;;;;5032171;28;20416;-77
2024/02/06 00:21:17;;;;;;;11.77;5.78;;;9.80;64.10;;;;;;5032129;28;20395;-77
2024/02/06 00:23:43;;;;;;;14.30;5.85;;;9.90;62.70;;;;;;5032133;28;20525;-76
2024/02/06 00:26:09;;;;;;;11.45;5.57;;;9.90;62.90;;;;;;5032282;28;20381;-77
2024/02/06 00:28:34;;;;;;;13.85;5.75;;;9.90;62.60;;;;;;5032137;28;20410;-75
2024/02/06 00:31:01;;;;;;;15.63;6.00;;;9.90;62.20;;;;;;5031876;28;20414;-77
2024/02/06 00:33:26;;;;;;;12.05;5.53;;;9.90;62.10;;;;;;5031502;28;20391;-75
2024/02/06 00:35:52;;;;;;;11.77;5.70;;;9.90;61.60;;;;;;5031661;28;20389;-77
2024/02/06 00:38:17;;;;;;;13.02;5.13;;;9.90;61.90;;;;;;5031891;28;20414;-76
2024/02/06 00:40:43;;;;;;;13.50;6.35;;;10.00;61.10;;;;;;5031915;28;20746;-77
2024/02/06 00:43:08;;;;;;;12.90;6.10;;;10.00;61.40;;;;;;5032486;28;20395;-76
2024/02/06 00:45:34;;;;;;;12.40;5.03;;;10.10;60.80;;;;;;5033508;28;20419;-77
2024/02/06 00:47:59;;;;;;;10.77;5.60;;;10.00;60.90;;;;;;5031809;28;20383;-77
2024/02/06 00:50:25;;;;;;;14.67;5.97;;;10.00;60.70;;;;;;5032029;28;20793;-77
2024/02/06 00:52:50;;;;;;;21.50;5.73;;;10.10;60.90;;;;;;5045949;28;20881;-77
2024/02/06 00:55:16;;;;;;;11.40;5.50;;;10.00;59.90;;;;;;5031059;28;20881;-76
2024/02/06 00:57:42;;;;;;;10.25;5.53;;;10.10;60.00;;;;;;5031554;28;20415;-77
2024/02/06 01:00:09;;;;;;;15.33;5.80;;;10.10;59.60;;;;;;5032050;28;20834;-78
2024/02/06 01:02:35;;;;;;;10.82;6.00;;;10.10;59.40;;;;;;5032198;28;20552;-76
2024/02/06 01:05:01;;;;;;;10.38;5.90;;;10.10;58.90;;;;;;5031879;28;20438;-76
2024/02/06 01:07:27;;;;;;;12.32;5.30;;;10.10;58.80;;;;;;5048726;28;20391;-77
2024/02/06 01:09:52;;;;;;;11.93;5.50;;;10.10;58.20;;;;;;5032700;28;20434;-77
2024/02/06 01:12:18;;;;;;;14.43;6.30;;;10.10;58.70;;;;;;5031511;28;20419;-76
2024/02/06 01:14:43;;;;;;;14.80;5.60;;;10.20;57.90;;;;;;5031909;28;20454;-76
2024/02/06 01:17:09;;;;;;;21.47;5.70;;;10.20;57.80;;;;;;5031958;28;20471;-76
2024/02/06 01:19:35;;;;;;;10.40;5.68;;;10.20;57.20;;;;;;5032165;28;20399;-75
2024/02/06 01:22:01;;;;;;;13.67;5.70;;;10.20;57.00;;;;;;5031941;28;20435;-75
2024/02/06 01:24:26;;;;;;;10.07;5.33;;;10.20;56.30;;;;;;5032117;28;20936;-77
2024/02/06 01:26:53;;;;;;;11.93;5.95;;;10.20;56.40;;;;;;5047415;28;20448;-76
2024/02/06 01:29:18;;;;;;;11.98;4.85;;;10.20;56.10;;;;;;5031463;28;20417;-76
2024/02/06 01:31:46;;;;;;;10.70;5.20;;;10.30;55.70;;;;;;5031389;28;20466;-75
2024/02/06 01:34:12;;;;;;;13.65;5.20;;;10.30;55.30;;;;;;5032606;28;20395;-76
2024/02/06 01:36:37;;;;;;;16.33;5.60;;;10.30;55.20;;;;;;5031915;28;20387;-76
2024/02/06 01:39:03;;;;;;;11.32;4.80;;;10.30;54.90;;;;;;5032576;28;20391;-79
2024/02/06 01:41:29;;;;;;;17.15;5.50;;;10.30;54.90;;;;;;5031760;28;20882;-77
2024/02/06 01:43:54;;;;;;;14.63;5.50;;;10.30;55.00;;;;;;5031174;28;20418;-77
2024/02/06 01:46:21;;;;;;;12.83;4.80;;;10.30;55.40;;;;;;5030957;28;20407;-76
2024/02/06 01:48:47;;;;;;;8.98;4.88;;;10.30;54.90;;;;;;5032291;28;20445;-76
2024/02/06 01:51:15;;;;;;;14.48;5.10;;;10.30;55.10;;;;;;5031426;28;20383;-76
2024/02/06 01:53:41;;;;;;;12.68;4.80;;;10.30;55.20;;;;;;5033084;28;20391;-75
2024/02/06 01:56:08;;;;;;;12.97;5.17;;;10.30;54.60;;;;;;5033766;28;20468;-76
2024/02/06 01:58:34;;;;;;;12.48;5.07;;;10.40;54.50;;;;;;5034025;28;20380;-77
2024/02/06 02:01:00;;;;;;;10.95;5.10;;;10.30;54.60;;;;;;5032818;28;20445;-77
2024/02/06 02:03:26;;;;;;;9.52;4.88;;;10.30;54.90;;;;;;5031189;28;20403;-74
2024/02/06 02:05:52;;;;;;;18.15;5.50;;;10.40;54.70;;;;;;5034481;28;20414;-74
2024/02/06 02:08:19;;;;;;;14.68;4.95;;;10.30;54.50;;;;;;5034171;28;20386;-76
2024/02/06 02:10:44;;;;;;;16.85;5.00;;;10.30;54.60;;;;;;5034183;28;20379;-76
2024/02/06 02:13:10;;;;;;;12.80;4.90;;;10.30;54.40;;;;;;5033881;28;20493;-77
2024/02/06 02:15:36;;;;;;;15.65;5.45;;;10.30;54.40;;;;;;5034266;28;20387;-75
2024/02/06 02:18:02;;;;;;;13.70;5.10;;;10.30;54.30;;;;;;5034088;28;20909;-76
2024/02/06 02:20:27;;;;;;;15.40;4.80;;;10.30;54.30;;;;;;5034214;28;20411;-76
2024/02/06 02:22:53;;;;;;;9.20;4.37;;;10.30;54.50;;;;;;5034208;28;20419;-76
2024/02/06 02:25:19;;;;;;;10.10;4.70;;;10.30;54.20;;;;;;5033629;28;20457;-75
2024/02/06 02:27:45;;;;;;;15.43;5.27;;;10.30;53.80;;;;;;5033995;28;20482;-75
2024/02/06 02:30:12;;;;;;;14.15;5.57;;;10.30;53.90;;;;;;5033724;28;20417;-74
2024/02/06 02:32:38;;;;;;;10.95;5.13;;;10.30;54.00;;;;;;5033630;28;20458;-75
2024/02/06 02:35:04;;;;;;;10.77;4.90;;;10.30;54.30;;;;;;5033820;28;20762;-76
2024/02/06 02:37:29;;;;;;;13.85;4.95;;;10.30;53.70;;;;;;5033932;28;20391;-76
2024/02/06 02:39:55;;;;;;;14.60;5.70;;;10.40;53.40;;;;;;5033808;28;20822;-76
2024/02/06 02:42:20;;;;;;;10.82;4.85;;;10.30;53.50;;;;;;5033922;28;20390;-74
2024/02/06 02:44:46;;;;;;;8.67;4.70;;;10.30;53.40;;;;;;5033695;28;20410;-76
2024/02/06 02:47:12;;;;;;;9.60;4.80;;;10.40;53.20;;;;;;5033565;28;20391;-76
2024/02/06 02:49:38;;;;;;;11.88;5.00;;;10.40;52.80;;;;;;5032124;28;20387;-75
2024/02/06 02:52:04;;;;;;;13.73;4.90;;;10.30;53.10;;;;;;5033372;28;20470;-76
2024/02/06 02:54:29;;;;;;;14.35;5.10;;;10.40;52.60;;;;;;5033659;28;20395;-76
2024/02/06 02:56:56;;;;;;;10.35;4.40;;;10.40;52.80;;;;;;5033735;28;20921;-76
2024/02/06 02:59:21;;;;;;;14.55;5.78;;;10.40;52.70;;;;;;5033517;28;20387;-76
2024/02/06 03:01:47;;;;;;;9.10;4.55;;;10.40;52.10;;;;;;5033206;28;20458;-75
2024/02/06 03:04:12;;;;;;;10.35;4.85;;;10.50;52.10;;;;;;5031844;28;20403;-76
2024/02/06 03:06:38;;;;;;;11.03;4.50;;;10.40;51.90;;;;;;5033580;28;20415;-76
2024/02/06 03:09:04;;;;;;;11.90;4.60;;;10.40;52.00;;;;;;5033436;28;20877;-76
2024/02/06 03:11:30;;;;;;;13.07;4.95;;;10.40;51.40;;;;;;5033030;28;20458;-75
2024/02/06 03:13:56;;;;;;;13.50;4.50;;;10.40;51.50;;;;;;5032888;28;20457;-76
2024/02/06 03:16:21;;;;;;;11.63;4.20;;;10.50;51.30;;;;;;5032204;28;20422;-76
2024/02/06 03:18:47;;;;;;;11.47;5.33;;;10.50;51.10;;;;;;5032960;28;20877;-76
2024/02/06 03:21:13;;;;;;;14.30;4.97;;;10.50;51.00;;;;;;5032957;28;20933;-76
2024/02/06 03:23:38;;;;;;;14.47;4.83;;;10.50;50.90;;;;;;5033795;28;20890;-76
2024/02/06 03:26:04;;;;;;;17.00;4.83;;;10.50;51.00;;;;;;5034102;28;20383;-75
2024/02/06 03:28:30;;;;;;;13.60;4.50;;;10.50;51.40;;;;;;5033065;28;20379;-75
2024/02/06 03:30:57;;;;;;;9.57;4.90;;;10.50;50.70;;;;;;5032848;28;20383;-75
2024/02/06 03:33:22;;;;;;;12.02;4.30;;;10.60;50.60;;;;;;5031345;28;20400;-76
2024/02/06 03:35:48;;;;;;;16.35;4.80;;;10.60;50.30;;;;;;5033060;28;20445;-75
2024/02/06 03:38:14;;;;;;;14.10;4.40;;;10.50;50.70;;;;;;5032873;28;20449;-75
2024/02/06 03:40:39;;;;;;;18.65;4.40;;;10.50;50.60;;;;;;5032760;28;20399;-75
2024/02/06 03:43:05;;;;;;;11.82;4.10;;;10.60;50.20;;;;;;5032906;28;20390;-76
2024/02/06 03:45:31;;;;;;;14.53;4.57;;;10.60;50.00;;;;;;5032509;28;20470;-76
2024/02/06 03:47:57;;;;;;;10.23;4.32;;;10.60;50.10;;;;;;5033074;28;20885;-76
2024/02/06 03:50:23;;;;;;;11.25;4.50;;;10.60;50.00;;;;;;5032801;28;20387;-74
2024/02/06 03:52:49;;;;;;;12.15;4.65;;;10.60;50.20;;;;;;5033546;28;20402;-75
2024/02/06 03:55:15;;;;;;;11.00;4.50;;;10.60;50.30;;;;;;5032561;28;20395;-77
2024/02/06 03:57:41;;;;;;;12.70;4.30;;;10.60;50.00;;;;;;5032928;28;20866;-76
2024/02/06 04:00:08;;;;;;;13.30;4.60;;;10.60;49.90;;;;;;5032667;28;20391;-76
2024/02/06 04:02:34;;;;;;;8.57;4.20;;;10.60;49.90;;;;;;5032061;28;20881;-76
2024/02/06 04:04:59;;;;;;;15.27;4.60;;;10.60;49.80;;;;;;5032332;28;20407;-76
2024/02/06 04:07:25;;;;;;;12.97;4.10;;;10.60;50.10;;;;;;5032319;28;20385;-76
2024/02/06 04:09:51;;;;;;;15.70;4.47;;;10.60;50.00;;;;;;5032267;28;20870;-76
2024/02/06 04:12:16;;;;;;;13.57;4.50;;;10.60;50.00;;;;;;5047253;28;20452;-76
2024/02/06 04:14:42;;;;;;;13.02;4.85;;;10.60;50.20;;;;;;5032190;28;20441;-76
2024/02/06 04:17:08;;;;;;;11.98;4.68;;;10.50;50.60;;;;;;5032435;28;20423;-76
2024/02/06 04:19:34;;;;;;;7.13;4.30;;;10.50;51.00;;;;;;5034060;28;20791;-75
2024/02/06 04:21:59;;;;;;;11.30;4.43;;;10.60;50.70;;;;;;5033894;28;20403;-75
2024/02/06 04:24:25;;;;;;;11.45;4.25;;;10.60;50.90;;;;;;5032061;28;20528;-75
2024/02/06 04:26:51;;;;;;;13.60;4.40;;;10.60;51.00;;;;;;5031319;28;20472;-75
2024/02/06 04:29:16;;;;;;;11.83;4.80;;;10.60;51.00;;;;;;5031899;28;20383;-76
2024/02/06 04:31:42;;;;;;;15.63;4.43;;;10.50;51.10;;;;;;5031785;28;20406;-76
2024/02/06 04:34:07;;;;;;;16.27;5.10;;;10.50;51.20;;;;;;5031465;28;20391;-75
2024/02/06 04:36:34;;;;;;;11.10;4.60;;;10.50;51.40;;;;;;5031787;28;20414;-76
2024/02/06 04:38:59;;;;;;;11.52;4.60;;;10.50;51.10;;;;;;5031638;28;20397;-76
2024/02/06 04:41:25;;;;;;;9.98;4.85;;;10.50;50.90;;;;;;5029458;28;20399;-75
2024/02/06 04:43:50;;;;;;;14.85;5.28;;;10.50;51.10;;;;;;5030446;28;20467;-74
2024/02/06 04:46:16;;;;;;;11.38;4.60;;;10.50;51.00;;;;;;5031172;28;20394;-74
2024/02/06 04:48:41;;;;;;;15.63;5.67;;;10.60;50.90;;;;;;5031293;28;20733;-75
2024/02/06 04:51:07;;;;;;;14.70;4.60;;;10.60;50.50;;;;;;5031593;28;20475;-75
2024/02/06 04:53:32;;;;;;;11.33;5.07;;;10.60;50.50;;;;;;5030445;28;20427;-70
2024/02/06 04:55:59;;;;;;;14.03;5.07;;;10.60;50.40;;;;;;5030772;28;20399;-72
2024/02/06 04:58:25;;;;;;;14.70;4.75;;;10.60;50.60;;;;;;5030744;28;20391;-72
2024/02/06 05:00:51;;;;;;;9.93;5.00;;;10.60;50.40;;;;;;5030672;28;20757;-72
2024/02/06 05:03:16;;;;;;;12.57;5.07;;;10.80;50.70;;;;;;5030646;28;20394;-71
2024/02/06 05:05:42;;;;;;;11.13;5.20;;;10.60;50.30;;;;;;5030146;28;20445;-72
2024/02/06 05:08:09;;;;;;;13.50;4.90;;;10.70;50.20;;;;;;5031108;28;20462;-72
2024/02/06 05:10:35;;;;;;;13.95;5.47;;;10.70;50.20;;;;;;5029787;28;20382;-71
2024/02/06 05:13:01;;;;;;;21.17;5.25;;;10.70;50.10;;;;;;5030563;28;20743;-74
2024/02/06 05:15:26;;;;;;;17.07;5.13;;;10.60;50.60;;;;;;5030645;28;20403;-75
2024/02/06 05:17:52;;;;;;;11.73;5.40;;;10.60;50.40;;;;;;5031391;28;20462;-74
2024/02/06 05:20:18;;;;;;;12.40;5.20;;;10.60;50.70;;;;;;5031204;28;20757;-75
2024/02/06 05:22:44;;;;;;;14.63;4.93;;;10.60;50.80;;;;;;5030930;28;20714;-75
2024/02/06 05:25:09;;;;;;;13.17;5.00;;;10.60;50.90;;;;;;5029487;28;20417;-75
2024/02/06 05:27:35;;;;;;;14.95;5.10;;;10.60;51.10;;;;;;5030754;28;20742;-74
2024/02/06 05:30:05;;;;;;;13.13;6.00;;;10.60;51.10;;;;;;5030913;28;20463;-73
2024/02/06 05:32:39;;;;;;;14.90;5.13;;;10.60;50.70;;;;;;5030652;28;20935;-75
2024/02/06 05:35:05;;;;;;;11.18;5.35;;;10.70;50.90;;;;;;5031515;28;20470;-75
2024/02/06 05:37:31;;;;;;;12.70;5.53;;;10.70;51.80;;;;;;5032010;28;20375;-75
2024/02/06 05:39:57;;;;;;;16.90;6.30;;;10.60;51.40;;;;;;5035282;28;20387;-75
2024/02/06 05:42:23;;;;;;;16.38;5.47;;;10.70;51.40;;;;;;5035005;28;20375;-74
2024/02/06 05:44:49;;;;;;;18.37;6.00;;;10.60;51.50;;;;;;5034812;28;20766;-73
2024/02/06 05:47:16;;;;;;;14.40;5.70;;;10.60;52.40;;;;;;5034597;28;20383;-73
2024/02/06 05:49:42;;;;;;;12.40;5.68;;;10.60;52.00;;;;;;5034647;28;20383;-73
2024/02/06 05:52:07;;;;;;;11.00;5.20;;;10.60;52.30;;;;;;5034607;28;20415;-75
2024/02/06 05:54:33;;;;;;;18.67;6.27;;;10.60;52.70;;;;;;5034283;28;20541;-74
2024/02/06 05:56:58;;;;;;;16.70;5.90;;;10.60;52.70;;;;;;5034961;28;20406;-74
2024/02/06 05:59:25;;;;;;;15.85;5.50;;;10.60;53.00;;;;;;5034527;28;20390;-75
2024/02/06 06:01:51;;;;;;;16.38;6.35;;;10.60;52.90;;;;;;5034731;28;20391;-74
2024/02/06 06:04:17;;;;;;;10.98;5.50;;;10.60;52.90;;;;;;5034123;28;20407;-73
2024/02/06 06:06:42;;;;;;;15.33;6.70;;;10.60;53.10;;;;;;5034966;28;20944;-75
2024/02/06 06:09:09;;;;;;;13.00;5.80;;;10.60;53.40;;;;;;5035085;28;20856;-74
2024/02/06 06:11:35;;;;;;;13.15;5.95;;;10.50;53.40;;;;;;5034163;28;20706;-75
2024/02/06 06:14:01;;;;;;;13.70;5.70;;;10.50;54.30;;;;;;5033994;28;20384;-75
2024/02/06 06:16:27;;;;;;;11.88;6.25;;;10.50;53.80;;;;;;5033884;28;20916;-74
2024/02/06 06:18:52;;;;;;;20.85;6.00;;;10.50;53.60;;;;;;5035006;28;20478;-74
2024/02/06 06:21:18;;;;;;;12.27;5.65;;;10.60;53.70;;;;;;5034019;28;20487;-74
2024/02/06 06:23:43;;;;;;;14.43;5.75;;;10.60;53.60;;;;;;5033494;28;20888;-73
2024/02/06 06:26:09;;;;;;;18.05;6.32;;;10.60;53.60;;;;;;5033910;28;20394;-75
2024/02/06 06:28:35;;;;;;;19.05;6.32;;;10.60;53.60;;;;;;5033956;28;20738;-73
2024/02/06 06:31:00;;;;;;;16.77;5.87;;;10.50;53.80;;;;;;5033844;28;20387;-73
2024/02/06 06:33:26;;;;;;;18.70;6.70;;;10.60;54.00;;;;;;5033781;28;20874;-74
2024/02/06 06:35:51;;;;;;;15.30;5.83;;;10.60;53.90;;;;;;5033768;28;20862;-75
2024/02/06 06:38:17;;;;;;;16.60;5.50;;;10.60;53.90;;;;;;5034255;28;20948;-74
2024/02/06 06:40:42;;;;;;;14.20;6.15;;;10.60;53.60;;;;;;5035136;28;20921;-75
2024/02/06 06:43:10;;;;;;;15.68;5.47;;;10.60;53.80;;;;;;5033746;28;20977;-74
2024/02/06 06:45:35;;;;;;;15.13;6.30;;;10.60;53.70;;;;;;5033648;28;20382;-74
2024/02/06 06:48:01;;;;;;;21.30;6.70;;;10.60;53.70;;;;;;5033437;28;20874;-74
2024/02/06 06:50:26;;;;;;;12.37;6.00;;;10.70;53.60;;;;;;5032686;28;20420;-75
2024/02/06 06:52:52;;;;;;;18.50;6.67;;;10.70;53.80;;;;;;5033568;28;20498;-75
2024/02/06 06:55:18;;;;;;;17.70;6.38;;;10.70;53.70;;;;;;5033735;28;20746;-76
2024/02/06 06:57:43;;;;;;;15.18;6.70;;;10.70;54.00;;;;;;5034084;28;20390;-76
2024/02/06 07:00:13;;;;;;;14.20;5.67;;;10.70;54.50;;;;;;5034832;28;20391;-76
2024/02/06 07:02:39;;;;;;;15.55;5.88;;;10.70;54.10;;;;;;5034443;28;20387;-74
2024/02/06 07:05:09;;;;;;;15.07;6.00;;;10.70;54.00;;;;;;5036784;28;20719;-75
2024/02/06 07:07:35;;;;;;;18.38;6.22;;;10.70;54.00;;;;;;5036383;28;20786;-74
2024/02/06 07:10:01;;;;;;;16.60;6.63;;;10.70;53.90;;;;;;5035212;28;20387;-73
2024/02/06 07:12:26;;;;;;;17.70;6.20;;;10.70;53.90;;;;;;5034319;28;20380;-76
2024/02/06 07:14:52;;;;;;;17.03;6.23;;;10.80;53.70;;;;;;5035636;28;20452;-74
2024/02/06 07:17:18;;;;;;;18.47;7.10;;;10.80;53.80;;;;;;5035160;28;20452;-74
2024/02/06 07:19:43;;;;;;;18.00;6.33;;;10.80;53.60;;;;;;5034348;28;20386;-74
2024/02/06 07:22:09;;;;;;;18.58;6.43;;;10.80;53.30;;;;;;5033865;28;20406;-75
2024/02/06 07:24:35;;;;;;;13.50;6.00;;;10.80;53.80;;;;;;5034141;28;20441;-76
2024/02/06 07:27:00;;;;;;;16.17;6.37;;;10.90;53.70;;;;;;5037447;28;20383;-74
2024/02/06 07:29:26;;;;;;;14.03;5.53;;;10.80;53.30;;;;;;5035225;28;20390;-75
2024/02/06 07:31:52;;;;;;;16.73;6.07;;;10.90;53.30;;;;;;5036825;28;20458;-74
2024/02/06 07:34:20;;;;;;;16.50;5.67;;;10.90;53.50;;;;;;5035906;28;20413;-73
2024/02/06 07:36:46;;;;;;;11.77;5.35;;;10.90;53.30;;;;;;5037978;28;20379;-75
2024/02/06 07:39:12;;;;;;;16.48;5.85;;;10.90;53.60;;;;;;5039488;28;20395;-74
2024/02/06 07:41:38;;;;;;;16.65;6.20;;;10.90;53.50;;;;;;5036365;28;20383;-75
2024/02/06 07:44:04;;;;;;;13.13;6.20;;;10.90;53.40;;;;;;5032604;28;20579;-75
2024/02/06 07:46:30;;;;;;;13.38;5.70;;;10.90;53.40;;;;;;5031443;28;20402;-73
2024/02/06 07:48:56;;;;;;;14.10;5.70;;;10.90;53.40;;;;;;5032818;28;20444;-74
2024/02/06 07:51:22;;;;;;;16.20;5.60;;;10.90;53.60;;;;;;5032220;28;20694;-74
2024/02/06 07:53:49;;;;;;;17.98;6.70;;;11.00;53.30;;;;;;5031956;28;20393;-74
2024/02/06 07:56:16;;;;;;;16.65;6.38;;;11.00;52.80;;;;;;5032306;28;20387;-75
2024/02/06 07:58:41;;;;;;;19.48;6.60;;;11.00;52.90;;;;;;5031165;28;20449;-72
2024/02/06 08:01:07;;;;;;;18.47;6.00;;;11.00;52.80;;;;;;5032435;28;20786;-75
2024/02/06 08:03:32;;;;;;;18.27;6.00;;;11.00;52.70;;;;;;5032315;28;20413;-74
2024/02/06 08:06:00;;;;;;;13.25;5.50;;;11.10;53.00;;;;;;5031935;28;20498;-74
2024/02/06 08:08:26;;;;;;;17.77;5.70;;;11.20;51.90;;;;;;5032666;28;20732;-75
2024/02/06 08:10:51;;;;;;;20.40;5.90;;;11.20;51.80;;;;;;5033390;28;20386;-75
2024/02/06 08:13:17;;;;;;;18.38;6.10;;;11.20;51.90;;;;;;5037465;28;20387;-75
2024/02/06 08:15:42;;;;;;;19.40;6.43;;;11.20;51.70;;;;;;5033460;28;20835;-72
2024/02/06 08:18:08;;;;;;;19.90;5.87;;;11.20;51.40;;;;;;5034421;28;20395;-75
2024/02/06 08:20:34;;;;;;;15.10;5.93;;;11.30;51.50;;;;;;5032461;28;20460;-74
2024/02/06 08:22:59;;;;;;;10.97;6.13;;;11.30;51.20;;;;;;5032781;28;20706;-74
2024/02/06 08:25:25;;;;;;;15.67;6.30;;;11.30;50.90;;;;;;5036168;28;20402;-73
2024/02/06 08:27:51;;;;;;;18.20;6.38;;;11.30;51.00;;;;;;5040590;28;20414;-74
2024/02/06 08:30:17;;;;;;;11.43;5.20;;;11.20;51.30;;;;;;5037698;28;20884;-73
2024/02/06 08:32:44;;;;;;;18.13;5.70;;;11.30;51.00;;;;;;5036829;28;20379;-75
2024/02/06 08:35:09;;;;;;;15.50;5.90;;;11.30;51.20;;;;;;5032595;28;20391;-75
2024/02/06 08:37:35;;;;;;;14.40;5.70;;;11.30;51.40;;;;;;5033513;28;20391;-75
2024/02/06 08:40:05;;;;;;;17.80;5.80;;;11.30;51.50;;;;;;5033030;28;20423;-75
2024/02/06 08:42:31;;;;;;;15.10;5.90;;;11.40;51.40;;;;;;5031435;28;20922;-74
2024/02/06 08:44:56;;;;;;;14.60;5.30;;;11.40;51.00;;;;;;5031059;28;20438;-74
2024/02/06 08:47:23;;;;;;;17.87;6.07;;;11.40;50.70;;;;;;5031581;28;20406;-75
2024/02/06 08:49:50;;;;;;;20.48;5.95;;;11.40;51.10;;;;;;5031641;28;20804;-75
2024/02/06 08:52:15;;;;;;;32.05;6.90;;;11.40;51.20;;;;;;5031510;28;20394;-74
2024/02/06 08:54:41;;;;;;;21.73;5.87;;;11.40;51.40;;;;;;5030822;28;20391;-76
2024/02/06 08:57:06;;;;;;;15.50;5.78;;;11.40;51.50;;;;;;5031719;28;20750;-74
2024/02/06 08:59:32;;;;;;;12.70;5.82;;;11.50;51.10;;;;;;5031393;28;20939;-75
2024/02/06 09:02:01;;;;;;;17.98;5.55;;;11.60;50.40;;;;;;5031766;28;20389;-75
2024/02/06 09:04:26;;;;;;;17.97;5.97;;;11.60;50.50;;;;;;5032083;28;20498;-75
2024/02/06 09:06:52;;;;;;;19.13;6.10;;;11.60;50.90;;;;;;5034718;28;20481;-73
2024/02/06 09:09:18;;;;;;;14.87;5.23;;;11.60;51.10;;;;;;5031991;28;20777;-74
2024/02/06 09:11:44;;;;;;;14.35;5.80;;;11.70;50.90;;;;;;5031045;28;20808;-75
2024/02/06 09:14:10;;;;;;;14.27;5.47;;;11.70;51.50;;;;;;5030493;28;20387;-74
2024/02/06 09:16:35;;;;;;;13.65;5.40;;;11.80;50.90;;;;;;5031774;28;20403;-75
2024/02/06 09:19:01;;;;;;;19.10;6.32;;;11.80;50.90;;;;;;5031987;28;20383;-75
2024/02/06 09:21:26;;;;;;;12.75;5.10;;;11.80;51.10;;;;;;5032087;28;20457;-76
2024/02/06 09:23:52;;;;;;;25.10;6.63;;;11.90;51.60;;;;;;5031459;28;20414;-75
2024/02/06 09:26:18;;;;;;;20.97;5.70;;;11.80;54.90;;;;;;5032701;28;20387;-75
2024/02/06 09:28:44;;;;;;;20.20;6.32;;;11.60;56.20;;;;;;5034537;28;20456;-75
2024/02/06 09:31:10;;;;;;;12.35;6.30;;;11.50;59.40;;;;;;5032689;28;20474;-74
2024/02/06 09:33:37;;;;;;;16.77;6.47;;;11.40;61.10;;;;;;5031302;28;20831;-76
2024/02/06 09:36:04;;;;;;;16.77;7.33;;;11.30;63.80;;;;;;5032573;28;20438;-75
2024/02/06 09:38:29;;;;;;;14.32;6.82;;;11.30;64.50;;;;;;5032638;28;20394;-76
2024/02/06 09:40:56;;;;;;;16.58;7.10;;;11.30;64.50;;;;;;5032038;28;20813;-73
2024/02/06 09:43:23;;;;;;;13.37;6.57;;;11.30;64.30;;;;;;5032027;28;20573;-75
2024/02/06 09:45:48;;;;;;;14.37;7.10;;;11.50;62.40;;;;;;5032917;28;20800;-75
2024/02/06 09:48:14;;;;;;;18.27;6.60;;;11.50;60.50;;;;;;5031981;28;20387;-74
2024/02/06 09:50:40;;;;;;;14.73;6.03;;;11.60;59.60;;;;;;5032262;28;20449;-75
2024/02/06 09:53:09;;;;;;;17.30;6.63;;;11.70;57.80;;;;;;5032401;28;20383;-74
2024/02/06 09:55:40;;;;;;;19.13;6.53;;;11.70;56.70;;;;;;5031854;28;20399;-74
2024/02/06 09:58:08;;;;;;;13.68;6.30;;;11.80;55.70;;;;;;5032811;28;20391;-76
2024/02/06 10:00:36;;;;;;;14.80;6.00;;;11.80;55.20;;;;;;5032640;28;20460;-75
2024/02/06 10:03:04;;;;;;;15.63;5.90;;;11.80;54.30;;;;;;5034145;28;20391;-76
2024/02/06 10:05:35;;;;;;;14.80;5.25;;;11.90;53.90;;;;;;5035922;28;20522;-75
2024/02/06 10:08:01;;;;;;;15.60;5.97;;;11.90;53.70;;;;;;5032055;28;20460;-75
2024/02/06 10:10:28;;;;;;;11.30;5.53;;;12.00;53.30;;;;;;5031626;28;20866;-77
2024/02/06 10:12:54;;;;;;;22.80;6.10;;;12.00;52.40;;;;;;5030529;28;20387;-76
2024/02/06 10:15:23;;;;;;;12.07;5.25;;;12.10;53.10;;;;;;5031100;28;20494;-75
2024/02/06 10:17:49;;;;;;;16.05;5.40;;;12.10;53.00;;;;;;5030893;28;20478;-74
2024/02/06 10:20:15;;;;;;;18.83;6.30;;;12.10;52.40;;;;;;5031039;28;20470;-75
2024/02/06 10:22:41;;;;;;;12.95;6.00;;;12.10;52.80;;;;;;5030884;28;20486;-74
2024/02/06 10:25:08;;;;;;;15.20;6.40;;;12.10;53.10;;;;;;5032884;28;20407;-75
2024/02/06 10:27:34;;;;;;;18.25;6.05;;;12.10;52.60;;;;;;5034584;28;20407;-75
2024/02/06 10:30:06;;;;;;;17.20;6.47;;;12.10;53.10;;;;;;5034718;28;20433;-75
2024/02/06 10:32:33;;;;;;;17.77;6.45;;;12.00;53.40;;;;;;5035117;28;20387;-74
2024/02/06 10:35:03;;;;;;;19.80;6.10;;;12.10;53.40;;;;;;5034726;28;20383;-75
2024/02/06 10:37:32;;;;;;;14.23;6.00;;;12.00;52.90;;;;;;5033409;28;20387;-74
2024/02/06 10:39:59;;;;;;;21.20;6.75;;;12.00;53.20;;;;;;5034972;28;20824;-74
2024/02/06 10:42:25;;;;;;;18.98;6.65;;;12.00;54.00;;;;;;5033405;28;20386;-74
2024/02/06 10:44:55;;;;;;;18.10;6.38;;;11.90;54.80;;;;;;5034383;28;20498;-75
2024/02/06 10:47:21;;;;;;;19.92;6.93;;;11.80;55.50;;;;;;5033852;28;20414;-74
2024/02/06 10:49:47;;;;;;;17.73;6.33;;;11.80;55.30;;;;;;5034272;28;20388;-75
2024/02/06 10:52:13;;;;;;;17.23;6.83;;;11.90;55.60;;;;;;5035092;28;20934;-74
2024/02/06 10:54:38;;;;;;;17.87;6.30;;;11.90;54.50;;;;;;5033835;28;20761;-76
2024/02/06 10:57:06;;;;;;;15.23;6.30;;;11.90;54.60;;;;;;5033896;28;20383;-73
2024/02/06 10:59:51;;;;;;;22.23;6.32;;;11.90;54.20;;;;;;5034147;28;20929;-74
2024/02/06 11:02:23;;;;;;;23.55;6.40;;;12.00;53.90;;;;;;5033426;28;20536;-74
2024/02/06 11:05:21;;;;;;;11.70;5.70;;;12.10;52.30;;;;;;5034595;28;20430;-74
2024/02/06 11:07:48;;;;;;;19.13;6.80;;;12.30;50.70;;;;;;5025289;28;20379;-74
2024/02/06 11:10:18;;;;;;;16.13;6.30;;;12.50;49.80;;;;;;5033568;28;20383;-74
2024/02/06 11:12:45;;;;;;;16.70;6.45;;;12.60;48.30;;;;;;5033885;28;20391;-73
2024/02/06 11:15:12;;;;;;;15.10;5.67;;;12.60;48.00;;;;;;5033429;28;20688;-75
2024/02/06 11:17:38;;;;;;;21.00;6.47;;;12.60;48.00;;;;;;5034060;28;20457;-74
2024/02/06 11:20:10;;;;;;;17.45;6.10;;;12.60;48.20;;;;;;5033934;28;20376;-75
2024/02/06 11:22:36;;;;;;;19.20;6.40;;;12.50;48.30;;;;;;5033583;28;20746;-75
2024/02/06 11:25:03;;;;;;;12.65;5.90;;;12.40;48.60;;;;;;5032755;28;20431;-74
2024/02/06 11:27:30;;;;;;;25.48;6.80;;;12.40;49.20;;;;;;5033523;28;20394;-74
2024/02/06 11:29:57;;;;;;;17.08;6.80;;;12.30;49.60;;;;;;5033537;28;20462;-74
2024/02/06 11:32:23;;;;;;;19.20;6.33;;;12.20;50.60;;;;;;5034115;28;20378;-74
2024/02/06 11:34:52;;;;;;;16.07;6.27;;;12.10;51.20;;;;;;5031278;28;20410;-73
2024/02/06 11:37:29;;;;;;;22.83;7.20;;;12.10;51.50;;;;;;5033085;28;20815;-76
2024/02/06 11:40:08;;;;;;;20.15;7.70;;;12.10;51.60;;;;;;5032967;28;20441;-73
2024/02/06 11:42:35;;;;;;;20.20;7.30;;;12.00;52.40;;;;;;5032925;28;20395;-75
2024/02/06 11:45:12;;;;;;;20.53;7.00;;;12.10;53.10;;;;;;5033083;28;20503;-76
2024/02/06 11:47:38;;;;;;;21.20;7.82;;;12.20;52.60;;;;;;5033385;28;20381;-74
2024/02/06 11:50:12;;;;;;;20.85;7.88;;;12.20;52.80;;;;;;5037811;28;20382;-74
2024/02/06 11:52:41;;;;;;;24.67;6.80;;;12.20;52.50;;;;;;5033205;28;20394;-73
2024/02/06 11:55:08;;;;;;;14.90;6.50;;;12.30;51.50;;;;;;5032458;28;20398;-74
2024/02/06 11:57:35;;;;;;;17.27;7.30;;;12.30;50.40;;;;;;5033465;28;20489;-74
2024/02/06 12:00:01;;;;;;;23.88;7.68;;;12.30;50.40;;;;;;5037009;28;20554;-75
2024/02/06 12:02:26;;;;;;;22.60;7.00;;;12.30;50.30;;;;;;5033209;28;20611;-75
2024/02/06 12:05:01;;;;;;;23.97;6.83;;;12.20;50.20;;;;;;5032944;28;20478;-74
2024/02/06 12:07:27;;;;;;;23.77;7.40;;;12.20;50.60;;;;;;5033366;28;20766;-74
2024/02/06 12:09:52;;;;;;;22.03;7.50;;;12.20;50.30;;;;;;5033241;28;20466;-74
2024/02/06 12:12:18;;;;;;;22.77;6.90;;;12.30;49.80;;;;;;5035040;28;20511;-74
2024/02/06 12:14:44;;;;;;;17.65;6.70;;;12.30;49.60;;;;;;5034132;28;20402;-74
2024/02/06 12:17:10;;;;;;;21.38;6.93;;;12.40;49.00;;;;;;5035084;28;20391;-73
2024/02/06 12:19:36;;;;;;;21.15;6.22;;;12.40;49.00;;;;;;5034657;28;20387;-74
2024/02/06 12:22:05;;;;;;;22.50;7.38;;;12.50;48.10;;;;;;5033353;28;20391;-73
2024/02/06 12:24:31;;;;;;;22.55;7.35;;;12.50;48.20;;;;;;5032578;28;20405;-75
2024/02/06 12:27:22;;;;;;;17.73;6.13;;;12.50;48.00;;;;;;5035208;28;20423;-76
2024/02/06 12:29:48;;;;;;;20.52;7.10;;;12.50;48.10;;;;;;5030027;28;20399;-74
2024/02/06 12:32:15;;;;;;;19.20;6.87;;;12.50;47.60;;;;;;5035355;28;20558;-73
2024/02/06 12:34:40;;;;;;;19.80;6.30;;;12.50;47.90;;;;;;5050067;28;20454;-74